Time;durP1;ratioP1;P1;durP2;ratioP2;P2;SDS_P1;SDS_P2;PMS_P1;PMS_P2;Temp;Humidity;BMP_temperature;BMP_pressure;BME280_temperature;BME280_humidity;BME280_pressure;Samples;Min_cycle;Max_cycle;Signal;HPM_P1;HPM_P2
2022/03/23 00:00:07;;;;;;;26.80;17.05;;;5.70;46.10;;;;;;5023094;28;20238;-74
2022/03/23 00:02:34;;;;;;;25.00;16.90;;;5.60;46.40;;;;;;5023489;28;20302;-75
2022/03/23 00:05:01;;;;;;;22.92;16.67;;;5.50;46.30;;;;;;5022229;28;20270;-74
2022/03/23 00:07:28;;;;;;;25.70;17.52;;;5.50;46.30;;;;;;5022828;28;20764;-75
2022/03/23 00:09:55;;;;;;;33.08;16.73;;;5.50;46.40;;;;;;5032833;28;20221;-74
2022/03/23 00:12:22;;;;;;;26.77;17.20;;;5.50;46.30;;;;;;5027891;28;20210;-74
2022/03/23 00:14:50;;;;;;;25.45;16.35;;;5.50;47.40;;;;;;5028671;28;20236;-74
2022/03/23 00:17:17;;;;;;;25.42;15.85;;;5.50;47.40;;;;;;5028149;28;20217;-74
2022/03/23 00:19:45;;;;;;;28.50;16.90;;;5.40;47.60;;;;;;5027420;28;20226;-75
2022/03/23 00:22:12;;;;;;;28.52;18.13;;;5.40;47.70;;;;;;5024745;28;20208;-74
2022/03/23 00:24:40;;;;;;;28.77;17.08;;;5.40;47.80;;;;;;5022614;28;20238;-74
2022/03/23 00:27:07;;;;;;;22.13;16.45;;;5.40;47.70;;;;;;5017404;28;20344;-75
2022/03/23 00:29:34;;;;;;;20.67;14.77;;;5.40;48.10;;;;;;5018345;28;20245;-75
2022/03/23 00:32:02;;;;;;;26.02;15.85;;;5.40;47.30;;;;;;5022484;28;20216;-75
2022/03/23 00:34:29;;;;;;;21.20;15.13;;;5.30;47.50;;;;;;5026188;28;20268;-74
2022/03/23 00:36:56;;;;;;;24.52;16.02;;;5.30;47.80;;;;;;5023880;28;20204;-75
2022/03/23 00:39:23;;;;;;;22.38;16.55;;;5.30;47.90;;;;;;5029589;28;20223;-76
2022/03/23 00:41:50;;;;;;;24.98;15.15;;;5.40;47.50;;;;;;5022974;28;20205;-74
2022/03/23 00:44:17;;;;;;;22.90;16.23;;;5.30;47.90;;;;;;5020864;28;20235;-74
2022/03/23 00:46:44;;;;;;;24.10;16.65;;;5.20;47.90;;;;;;5021462;28;20244;-75
2022/03/23 00:49:12;;;;;;;27.55;17.45;;;5.20;48.60;;;;;;5019510;28;20228;-74
2022/03/23 00:51:39;;;;;;;25.50;16.35;;;5.20;48.70;;;;;;5017772;28;20666;-75
2022/03/23 00:54:06;;;;;;;25.42;17.23;;;5.10;49.00;;;;;;5020315;28;20236;-74
2022/03/23 00:56:33;;;;;;;25.92;16.70;;;5.00;49.40;;;;;;5021301;28;20260;-74
2022/03/23 00:59:00;;;;;;;25.25;17.00;;;5.00;49.70;;;;;;5016917;28;20330;-74
2022/03/23 01:01:29;;;;;;;25.73;15.93;;;4.90;50.20;;;;;;5018857;28;20586;-73
2022/03/23 01:03:56;;;;;;;22.92;15.32;;;4.90;50.20;;;;;;5017693;28;20281;-75
2022/03/23 01:06:24;;;;;;;28.10;17.38;;;4.80;50.30;;;;;;5010881;28;20243;-74
2022/03/23 01:08:51;;;;;;;24.55;17.50;;;4.80;50.70;;;;;;5027341;28;20230;-74
2022/03/23 01:11:18;;;;;;;28.00;18.20;;;4.80;51.00;;;;;;5030055;28;20218;-75
2022/03/23 01:13:45;;;;;;;22.10;16.20;;;4.90;50.50;;;;;;5028857;28;20236;-75
2022/03/23 01:16:12;;;;;;;22.58;16.15;;;4.80;50.50;;;;;;5025973;28;20213;-75
2022/03/23 01:18:39;;;;;;;24.15;15.50;;;4.80;50.50;;;;;;5021594;28;20231;-74
2022/03/23 01:21:07;;;;;;;23.73;16.83;;;4.80;50.50;;;;;;5020675;28;20734;-74
2022/03/23 01:23:35;;;;;;;24.95;16.70;;;4.70;50.70;;;;;;5022322;28;20216;-73
2022/03/23 01:26:02;;;;;;;23.85;16.55;;;4.60;51.10;;;;;;5026247;28;20220;-74
2022/03/23 01:28:29;;;;;;;25.33;17.15;;;4.60;51.50;;;;;;5025756;28;20200;-75
2022/03/23 01:30:56;;;;;;;25.70;17.40;;;4.60;51.70;;;;;;5018613;28;20210;-74
2022/03/23 01:33:23;;;;;;;23.95;17.75;;;4.60;52.10;;;;;;5016148;28;20763;-74
2022/03/23 01:35:50;;;;;;;26.08;16.13;;;4.60;52.10;;;;;;5015785;28;20221;-75
2022/03/23 01:38:17;;;;;;;25.65;16.75;;;4.60;51.90;;;;;;5016141;28;20724;-74
2022/03/23 01:40:46;;;;;;;25.05;16.65;;;4.60;52.20;;;;;;5015942;28;20226;-75
2022/03/23 01:43:13;;;;;;;22.88;17.20;;;4.60;52.20;;;;;;5015428;28;20612;-74
2022/03/23 01:45:40;;;;;;;22.88;17.10;;;4.50;52.10;;;;;;5014893;28;20316;-74
2022/03/23 01:48:06;;;;;;;25.20;16.85;;;4.40;52.60;;;;;;5016442;28;20287;-74
2022/03/23 01:50:33;;;;;;;29.23;16.60;;;4.40;52.70;;;;;;5015705;28;20236;-74
2022/03/23 01:53:00;;;;;;;21.98;14.88;;;4.40;53.70;;;;;;5015385;28;20210;-75
2022/03/23 01:55:27;;;;;;;21.67;16.70;;;4.40;53.40;;;;;;5016346;28;20200;-75
2022/03/23 01:57:55;;;;;;;28.38;16.42;;;4.30;53.50;;;;;;5016034;28;20225;-74
2022/03/23 02:00:23;;;;;;;27.98;19.00;;;4.30;53.60;;;;;;5015183;28;20246;-75
2022/03/23 02:02:50;;;;;;;24.92;17.00;;;4.30;54.40;;;;;;5016370;28;20209;-75
2022/03/23 02:05:17;;;;;;;25.42;16.83;;;4.20;54.60;;;;;;5015678;28;20219;-75
2022/03/23 02:07:43;;;;;;;24.63;16.80;;;4.20;54.60;;;;;;5016215;28;20210;-75
2022/03/23 02:10:10;;;;;;;23.10;17.23;;;4.10;54.50;;;;;;5015908;28;20318;-75
2022/03/23 02:12:38;;;;;;;27.67;17.33;;;4.10;54.50;;;;;;5016018;28;20678;-75
2022/03/23 02:15:13;;;;;;;23.60;17.35;;;4.00;55.80;;;;;;5015566;28;20216;-75
2022/03/23 02:17:42;;;;;;;24.75;17.63;;;4.00;56.20;;;;;;4997220;28;20275;-74
2022/03/23 02:20:10;;;;;;;22.95;15.93;;;4.00;56.30;;;;;;5020315;28;20224;-74
2022/03/23 02:22:38;;;;;;;24.63;16.80;;;4.00;56.20;;;;;;5030522;28;20213;-73
2022/03/23 02:25:07;;;;;;;24.40;17.13;;;3.90;56.50;;;;;;5029601;28;20209;-74
2022/03/23 02:27:36;;;;;;;25.35;17.88;;;3.90;56.80;;;;;;5027894;28;20212;-74
2022/03/23 02:30:03;;;;;;;24.63;17.35;;;3.90;57.70;;;;;;5014935;28;20612;-74
2022/03/23 02:32:30;;;;;;;21.17;16.15;;;3.90;56.80;;;;;;5014881;28;20219;-76
2022/03/23 02:34:59;;;;;;;24.48;16.30;;;3.90;56.90;;;;;;5014251;28;20197;-75
2022/03/23 02:37:25;;;;;;;25.35;17.60;;;3.80;57.00;;;;;;5014889;28;20634;-75
2022/03/23 02:39:54;;;;;;;24.60;18.23;;;3.80;57.30;;;;;;5013650;28;20604;-75
2022/03/23 02:42:20;;;;;;;24.90;17.33;;;3.70;58.00;;;;;;5015312;28;20207;-75
2022/03/23 02:44:47;;;;;;;34.08;18.40;;;3.70;58.20;;;;;;5014592;28;20671;-74
2022/03/23 02:47:14;;;;;;;29.05;17.60;;;3.80;58.50;;;;;;5013228;28;20224;-75
2022/03/23 02:49:41;;;;;;;25.73;18.02;;;3.80;58.30;;;;;;5014556;28;20764;-75
2022/03/23 02:52:08;;;;;;;27.33;17.67;;;3.80;58.30;;;;;;5015026;28;20275;-75
2022/03/23 03:03:17;;;;;;;27.55;17.10;;;3.60;58.30;;;;;;4995257;28;20235;-75
2022/03/23 03:05:44;;;;;;;25.15;16.95;;;3.60;59.40;;;;;;4999072;28;20227;-74
2022/03/23 03:10:56;;;;;;;25.88;16.40;;;3.60;58.70;;;;;;5013935;28;20212;-76
2022/03/23 03:13:24;;;;;;;26.00;17.63;;;3.60;59.10;;;;;;5013955;28;20628;-75
2022/03/23 03:15:52;;;;;;;24.58;16.30;;;3.60;59.20;;;;;;5013333;28;20225;-76
2022/03/23 03:18:19;;;;;;;27.42;16.80;;;3.70;59.00;;;;;;5014084;28;20271;-75
2022/03/23 03:20:47;;;;;;;26.38;17.17;;;3.60;59.00;;;;;;5013298;28;20298;-74
2022/03/23 03:23:15;;;;;;;27.33;17.08;;;3.50;59.40;;;;;;5013706;28;20302;-75
2022/03/23 03:25:42;;;;;;;22.25;16.63;;;3.50;59.40;;;;;;5015557;28;20626;-73
2022/03/23 03:28:09;;;;;;;24.17;17.05;;;3.50;59.80;;;;;;5029420;28;20208;-74
2022/03/23 03:30:38;;;;;;;29.77;17.42;;;3.50;59.90;;;;;;5027939;28;20256;-75
2022/03/23 03:33:05;;;;;;;23.90;16.48;;;3.40;59.70;;;;;;5021065;28;20209;-75
2022/03/23 03:35:32;;;;;;;23.38;15.65;;;3.40;60.00;;;;;;5017549;28;20290;-74
2022/03/23 03:37:58;;;;;;;22.52;16.27;;;3.40;59.80;;;;;;5016420;28;20202;-74
2022/03/23 03:40:25;;;;;;;23.45;16.85;;;3.30;60.00;;;;;;5015887;28;20707;-75
2022/03/23 03:42:52;;;;;;;22.20;17.13;;;3.30;60.40;;;;;;5016572;28;20206;-74
2022/03/23 03:45:19;;;;;;;23.65;16.10;;;3.30;61.00;;;;;;5022047;28;20273;-74
2022/03/23 03:47:47;;;;;;;26.00;16.17;;;3.30;61.00;;;;;;5030629;28;20270;-74
2022/03/23 03:50:15;;;;;;;25.08;17.20;;;3.30;60.80;;;;;;5020476;28;20238;-75
2022/03/23 03:52:41;;;;;;;27.73;18.13;;;3.30;61.10;;;;;;5018226;28;20208;-75
2022/03/23 03:55:09;;;;;;;26.92;16.50;;;3.20;61.90;;;;;;5022600;28;20205;-75
2022/03/23 03:57:36;;;;;;;27.23;16.00;;;3.20;61.70;;;;;;5022177;28;20291;-74
2022/03/23 04:00:04;;;;;;;23.92;16.50;;;3.20;62.60;;;;;;5024212;28;20327;-74
2022/03/23 04:02:30;;;;;;;25.83;16.95;;;3.10;62.70;;;;;;5017844;28;20298;-74
2022/03/23 04:04:59;;;;;;;26.55;16.83;;;3.10;62.70;;;;;;5017173;28;20653;-74
2022/03/23 04:07:26;;;;;;;27.13;16.17;;;3.10;62.70;;;;;;5017868;28;20641;-74
2022/03/23 04:09:52;;;;;;;24.42;16.25;;;3.10;62.70;;;;;;5023274;28;20240;-74
2022/03/23 04:12:19;;;;;;;24.40;16.92;;;3.10;62.70;;;;;;5029370;28;20221;-74
2022/03/23 04:14:47;;;;;;;25.98;15.40;;;2.90;63.20;;;;;;5030182;28;20207;-75
2022/03/23 04:17:14;;;;;;;22.35;15.02;;;2.90;62.50;;;;;;5028508;28;20204;-74
2022/03/23 04:19:41;;;;;;;20.40;15.13;;;2.90;62.50;;;;;;5020077;28;20237;-74
2022/03/23 04:22:09;;;;;;;20.25;14.90;;;2.90;62.60;;;;;;5019026;28;20275;-75
2022/03/23 04:24:36;;;;;;;26.63;15.45;;;2.90;62.60;;;;;;5016808;28;20212;-74
2022/03/23 04:27:03;;;;;;;21.45;14.05;;;2.90;62.60;;;;;;5016177;28;20267;-74
2022/03/23 04:29:30;;;;;;;23.15;15.27;;;2.80;62.50;;;;;;5019160;28;20255;-74
2022/03/23 04:31:57;;;;;;;20.25;15.27;;;2.80;62.80;;;;;;5020631;28;20231;-74
2022/03/23 04:34:25;;;;;;;27.00;16.02;;;2.80;63.10;;;;;;5021889;28;20213;-75
2022/03/23 04:36:52;;;;;;;21.77;14.88;;;2.90;63.00;;;;;;5023993;28;20204;-74
2022/03/23 04:39:21;;;;;;;24.27;15.38;;;2.80;62.40;;;;;;5018683;28;20295;-75
2022/03/23 04:41:48;;;;;;;27.52;16.90;;;2.70;63.60;;;;;;5018067;28;20210;-75
2022/03/23 04:44:14;;;;;;;22.27;16.05;;;2.80;63.80;;;;;;5018639;28;20265;-74
2022/03/23 04:46:41;;;;;;;20.60;13.80;;;2.80;64.00;;;;;;5017609;28;20224;-75
2022/03/23 04:49:08;;;;;;;25.63;15.57;;;2.70;63.60;;;;;;5015449;28;20310;-75
2022/03/23 04:51:36;;;;;;;26.40;14.70;;;2.70;64.00;;;;;;5016695;28;20291;-75
2022/03/23 04:54:04;;;;;;;30.23;17.70;;;2.60;64.90;;;;;;5016020;28;20211;-75
2022/03/23 04:56:32;;;;;;;23.80;16.33;;;2.70;65.80;;;;;;5017691;28;20204;-75
2022/03/23 04:58:59;;;;;;;24.02;16.13;;;2.70;65.50;;;;;;5022128;28;20231;-75
2022/03/23 05:01:26;;;;;;;28.73;18.75;;;2.70;65.30;;;;;;5025525;28;20200;-74
2022/03/23 05:03:53;;;;;;;26.63;16.80;;;2.70;65.90;;;;;;5026331;28;20229;-74
2022/03/23 05:06:20;;;;;;;23.67;16.42;;;2.60;65.50;;;;;;5025262;28;20224;-75
2022/03/23 05:08:47;;;;;;;23.15;16.35;;;2.60;65.70;;;;;;5025212;28;20336;-75
2022/03/23 05:11:14;;;;;;;26.88;17.60;;;2.60;65.50;;;;;;5025617;28;20212;-75
2022/03/23 05:13:42;;;;;;;25.33;17.42;;;2.60;65.40;;;;;;5025018;28;20273;-76
2022/03/23 05:16:10;;;;;;;32.53;17.60;;;2.60;65.50;;;;;;5024951;28;20201;-74
2022/03/23 05:18:36;;;;;;;25.20;17.00;;;2.60;65.70;;;;;;5020955;28;20579;-74
2022/03/23 05:21:04;;;;;;;21.60;15.73;;;2.60;65.60;;;;;;5020569;28;20217;-77
2022/03/23 05:23:31;;;;;;;25.65;15.20;;;2.60;65.80;;;;;;5016507;28;20216;-76
2022/03/23 05:25:58;;;;;;;28.08;16.15;;;2.50;66.30;;;;;;5015484;28;20295;-75
2022/03/23 05:28:26;;;;;;;22.15;15.68;;;2.60;66.50;;;;;;5014165;28;20632;-75
2022/03/23 05:30:54;;;;;;;24.85;15.40;;;2.70;66.30;;;;;;5014467;28;20200;-75
2022/03/23 05:33:21;;;;;;;24.02;16.70;;;2.70;66.10;;;;;;5015437;28;20207;-76
2022/03/23 05:35:48;;;;;;;24.73;16.50;;;2.70;65.60;;;;;;5015251;28;20296;-75
2022/03/23 05:38:15;;;;;;;25.50;16.15;;;2.70;65.90;;;;;;5020498;28;20335;-76
2022/03/23 05:40:43;;;;;;;28.15;17.55;;;2.70;65.90;;;;;;5018790;28;20248;-75
2022/03/23 05:43:11;;;;;;;25.15;15.57;;;2.80;65.50;;;;;;5018467;28;20226;-75
2022/03/23 05:45:39;;;;;;;20.85;14.93;;;2.90;65.30;;;;;;5016700;28;20296;-75
2022/03/23 05:48:08;;;;;;;23.50;15.32;;;3.00;64.90;;;;;;5015238;28;20779;-75
2022/03/23 05:50:35;;;;;;;22.80;15.52;;;3.10;64.00;;;;;;5014190;28;20310;-75
2022/03/23 05:53:02;;;;;;;24.48;16.20;;;3.20;63.30;;;;;;5014599;28;20209;-75
2022/03/23 05:55:29;;;;;;;22.13;16.17;;;3.20;62.80;;;;;;5014284;28;20295;-76
2022/03/23 05:57:56;;;;;;;20.35;14.27;;;3.30;62.90;;;;;;5013615;28;20212;-75
2022/03/23 06:00:23;;;;;;;20.48;15.18;;;3.30;62.90;;;;;;5013764;28;20721;-75
2022/03/23 06:02:50;;;;;;;23.63;15.27;;;3.40;62.40;;;;;;5014673;28;20208;-75
2022/03/23 06:05:19;;;;;;;26.40;14.77;;;3.40;62.60;;;;;;5014048;28;20655;-75
2022/03/23 06:07:46;;;;;;;26.25;14.48;;;3.40;61.80;;;;;;5015954;28;20768;-76
2022/03/23 06:10:12;;;;;;;22.27;15.90;;;3.50;61.70;;;;;;5014698;28;20279;-75
2022/03/23 06:12:39;;;;;;;24.38;14.93;;;3.60;61.30;;;;;;5014971;28;20267;-75
2022/03/23 06:15:08;;;;;;;23.10;15.07;;;3.60;60.90;;;;;;5016623;28;20212;-74
2022/03/23 06:17:35;;;;;;;25.05;15.80;;;3.70;60.70;;;;;;5019033;28;20198;-75
2022/03/23 06:20:02;;;;;;;28.55;16.80;;;3.80;60.00;;;;;;5017179;28;20222;-74
2022/03/23 06:22:31;;;;;;;25.15;14.77;;;3.80;59.70;;;;;;5017208;28;20675;-76
2022/03/23 06:24:58;;;;;;;21.90;15.93;;;3.90;59.00;;;;;;5027003;28;20229;-74
2022/03/23 06:27:26;;;;;;;24.73;16.25;;;3.90;58.50;;;;;;5018835;28;20294;-74
2022/03/23 06:29:53;;;;;;;23.17;16.20;;;3.90;58.50;;;;;;5016249;28;20768;-75
2022/03/23 06:32:21;;;;;;;20.80;15.90;;;4.00;58.40;;;;;;5017252;28;20233;-75
2022/03/23 06:34:49;;;;;;;25.30;15.07;;;4.00;57.70;;;;;;5017923;28;20205;-75
2022/03/23 06:37:15;;;;;;;24.30;15.15;;;4.00;57.80;;;;;;5016679;28;20206;-75
2022/03/23 06:39:44;;;;;;;24.10;15.85;;;4.10;58.00;;;;;;5014816;28;20223;-74
2022/03/23 06:42:11;;;;;;;23.42;15.80;;;4.30;57.50;;;;;;5014858;28;20215;-74
2022/03/23 06:44:39;;;;;;;17.92;14.27;;;4.40;57.00;;;;;;5015062;28;20235;-75
2022/03/23 06:47:06;;;;;;;22.38;15.48;;;4.60;56.50;;;;;;5013749;28;20285;-75
2022/03/23 06:49:32;;;;;;;24.75;15.07;;;4.80;55.20;;;;;;5013833;28;20220;-76
2022/03/23 06:51:59;;;;;;;23.20;13.88;;;5.00;55.20;;;;;;5014375;28;20579;-75
2022/03/23 06:54:26;;;;;;;23.15;15.35;;;5.10;52.80;;;;;;5015365;28;20213;-74
2022/03/23 06:56:55;;;;;;;24.17;14.85;;;5.10;52.00;;;;;;5015972;28;20198;-75
2022/03/23 06:59:22;;;;;;;24.13;14.05;;;5.30;52.00;;;;;;5018917;28;20233;-75
2022/03/23 07:01:49;;;;;;;23.10;14.85;;;5.40;51.00;;;;;;5021516;28;20233;-75
2022/03/23 07:04:16;;;;;;;18.30;14.43;;;5.60;50.60;;;;;;5027246;28;20234;-75
2022/03/23 07:06:43;;;;;;;24.25;16.50;;;5.70;50.30;;;;;;5031943;28;20230;-75
2022/03/23 07:11:56;;;;;;;21.50;15.13;;;6.00;48.80;;;;;;5020634;28;20288;-75
2022/03/23 07:14:23;;;;;;;21.35;15.02;;;6.20;48.40;;;;;;5028667;28;20207;-75
2022/03/23 07:16:49;;;;;;;19.25;14.38;;;6.30;47.00;;;;;;5034680;28;20278;-76
2022/03/23 07:19:17;;;;;;;24.73;15.55;;;6.50;47.20;;;;;;5032773;28;20224;-74
2022/03/23 07:21:44;;;;;;;20.70;14.70;;;6.50;47.20;;;;;;5028218;28;20210;-76
2022/03/23 07:24:11;;;;;;;22.40;15.18;;;6.70;46.50;;;;;;5028119;28;20294;-75
2022/03/23 07:26:38;;;;;;;21.23;15.77;;;6.80;46.10;;;;;;5032399;28;20733;-74
2022/03/23 07:29:07;;;;;;;24.15;15.32;;;7.00;45.60;;;;;;5019163;28;20219;-75
2022/03/23 07:31:34;;;;;;;25.17;15.63;;;7.10;44.60;;;;;;5020977;28;20225;-75
2022/03/23 07:34:02;;;;;;;17.27;14.63;;;7.20;44.20;;;;;;5025264;28;20262;-75
2022/03/23 07:36:29;;;;;;;22.67;15.40;;;7.30;43.90;;;;;;5025692;28;20219;-76
2022/03/23 07:38:56;;;;;;;20.48;14.88;;;7.40;43.30;;;;;;5029578;28;20242;-75
2022/03/23 07:41:23;;;;;;;23.27;15.93;;;7.50;43.20;;;;;;5034084;28;20215;-75
2022/03/23 07:43:50;;;;;;;24.63;15.88;;;7.60;43.00;;;;;;5027119;28;20211;-76
2022/03/23 07:46:18;;;;;;;20.17;15.95;;;7.70;42.80;;;;;;5016355;28;20210;-76
2022/03/23 07:48:45;;;;;;;19.95;14.57;;;7.70;42.00;;;;;;5016810;28;20315;-75
2022/03/23 07:51:12;;;;;;;19.08;15.13;;;7.90;41.90;;;;;;5016250;28;20211;-75
2022/03/23 07:53:39;;;;;;;21.85;14.48;;;8.00;41.30;;;;;;5014427;28;20215;-76
2022/03/23 07:56:07;;;;;;;25.85;15.93;;;8.20;40.50;;;;;;5014949;28;20227;-75
2022/03/23 07:58:33;;;;;;;23.77;16.27;;;8.30;40.00;;;;;;5016397;28;20199;-77
2022/03/23 08:01:00;;;;;;;34.95;17.50;;;8.40;39.10;;;;;;5010718;28;20491;-75
2022/03/23 08:03:28;;;;;;;23.17;15.77;;;8.60;39.30;;;;;;5015865;28;20226;-75
2022/03/23 08:05:55;;;;;;;22.48;16.15;;;8.70;39.40;;;;;;5010165;28;20312;-75
2022/03/23 08:08:23;;;;;;;25.95;16.90;;;8.80;39.40;;;;;;5015713;28;20228;-77
2022/03/23 08:10:50;;;;;;;23.00;16.20;;;8.80;39.40;;;;;;5015540;28;20404;-76
2022/03/23 08:13:17;;;;;;;23.35;16.77;;;8.80;39.00;;;;;;5001886;28;20594;-76
2022/03/23 08:15:44;;;;;;;22.83;16.88;;;9.00;38.50;;;;;;5013461;28;20299;-75
2022/03/23 08:18:14;;;;;;;20.55;15.75;;;9.10;37.80;;;;;;5017055;28;20602;-75
2022/03/23 08:20:42;;;;;;;20.63;15.65;;;9.40;37.60;;;;;;5016356;28;20228;-75
2022/03/23 08:23:15;;;;;;;22.02;15.25;;;9.60;36.20;;;;;;5009848;28;20208;-76
2022/03/23 08:25:42;;;;;;;21.38;15.85;;;9.60;35.20;;;;;;5011209;28;20236;-76
2022/03/23 08:28:11;;;;;;;22.40;16.83;;;9.60;35.30;;;;;;5008733;28;20229;-75
2022/03/23 08:30:38;;;;;;;19.52;15.23;;;9.70;35.20;;;;;;5006522;28;20224;-75
2022/03/23 08:33:05;;;;;;;18.55;14.30;;;9.90;34.10;;;;;;5010332;28;20271;-75
2022/03/23 08:35:32;;;;;;;19.42;14.00;;;10.00;31.70;;;;;;5009788;28;20204;-76
2022/03/23 08:38:01;;;;;;;18.55;14.40;;;10.00;31.00;;;;;;5010184;28;20195;-76
2022/03/23 08:40:28;;;;;;;23.50;15.23;;;10.00;30.70;;;;;;5010847;28;20318;-78
2022/03/23 08:42:57;;;;;;;22.05;14.85;;;10.10;30.90;;;;;;5015927;28;20625;-78
2022/03/23 08:45:24;;;;;;;17.15;14.07;;;10.10;31.90;;;;;;5013302;28;20200;-76
2022/03/23 08:47:51;;;;;;;22.00;14.10;;;10.20;31.80;;;;;;5013632;28;20342;-78
2022/03/23 08:50:19;;;;;;;21.58;14.30;;;10.30;30.90;;;;;;5013663;28;20285;-79
2022/03/23 08:52:46;;;;;;;19.20;14.00;;;10.30;30.80;;;;;;5016209;28;20694;-79
2022/03/23 08:55:19;;;;;;;22.50;12.80;;;10.40;30.40;;;;;;5014960;28;20568;-78
2022/03/23 08:57:46;;;;;;;20.33;13.35;;;10.70;30.10;;;;;;5016328;28;20184;-77
2022/03/23 09:00:14;;;;;;;19.75;13.48;;;10.90;30.00;;;;;;5021342;28;20239;-79
2022/03/23 09:02:41;;;;;;;24.05;15.27;;;11.00;29.50;;;;;;5028346;28;20283;-78
2022/03/23 09:05:11;;;;;;;18.63;14.60;;;10.80;29.60;;;;;;5020912;28;20609;-76
2022/03/23 09:07:39;;;;;;;20.13;14.40;;;10.90;30.70;;;;;;5021559;28;20231;-78
2022/03/23 09:10:07;;;;;;;26.38;15.45;;;11.10;29.60;;;;;;5027040;28;20220;-77
2022/03/23 09:12:36;;;;;;;24.20;15.75;;;11.10;29.30;;;;;;5021316;28;20234;-78
2022/03/23 09:15:04;;;;;;;22.20;16.13;;;11.00;29.10;;;;;;5021761;28;20219;-78
2022/03/23 09:17:31;;;;;;;23.48;16.52;;;11.10;29.70;;;;;;5021178;28;20199;-77
2022/03/23 09:20:00;;;;;;;22.63;15.98;;;11.40;28.60;;;;;;5023007;28;20228;-78
2022/03/23 09:22:27;;;;;;;22.98;15.60;;;11.50;28.30;;;;;;5024146;28;20238;-78
2022/03/23 09:24:55;;;;;;;19.08;14.65;;;11.60;28.40;;;;;;5027254;28;20211;-78
2022/03/23 09:27:21;;;;;;;20.23;15.90;;;11.70;28.80;;;;;;5033018;28;20213;-79
2022/03/23 09:29:50;;;;;;;23.17;16.50;;;11.80;28.90;;;;;;5034545;28;20211;-78
2022/03/23 09:32:17;;;;;;;20.58;14.90;;;11.80;28.60;;;;;;5035079;28;20227;-76
2022/03/23 09:34:45;;;;;;;22.08;16.05;;;11.70;28.20;;;;;;5034908;28;20215;-76
2022/03/23 09:39:57;;;;;;;21.50;15.48;;;11.90;28.30;;;;;;5022216;28;20581;-76
2022/03/23 09:42:27;;;;;;;23.38;16.50;;;12.30;27.40;;;;;;5022736;28;20242;-76
2022/03/23 09:44:56;;;;;;;22.65;15.65;;;12.40;27.00;;;;;;5028293;28;20188;-76
2022/03/23 09:47:23;;;;;;;22.75;16.08;;;12.40;26.80;;;;;;5034027;28;20212;-76
2022/03/23 09:49:51;;;;;;;22.17;16.20;;;12.60;26.40;;;;;;5034014;28;20211;-76
2022/03/23 09:52:18;;;;;;;22.80;16.33;;;12.90;25.30;;;;;;5034750;28;20386;-76
2022/03/23 09:54:45;;;;;;;24.58;16.02;;;12.80;25.70;;;;;;5033808;28;20267;-76
2022/03/23 09:57:13;;;;;;;24.08;17.23;;;12.90;25.50;;;;;;5034331;28;20206;-76
2022/03/23 09:59:41;;;;;;;21.17;16.40;;;13.20;25.00;;;;;;5033584;28;20211;-76
2022/03/23 10:02:52;;;;;;;22.10;15.03;;;13.30;24.10;;;;;;5034542;28;20457;-75
2022/03/23 10:05:58;;;;;;;21.27;15.93;;;13.00;23.80;;;;;;4998128;28;20492;-76
2022/03/23 10:08:54;;;;;;;21.52;15.40;;;12.80;23.70;;;;;;5018540;28;20318;-76
2022/03/23 10:12:20;;;;;;;26.10;16.00;;;12.90;23.80;;;;;;5018770;28;20232;-77
2022/03/23 10:15:29;;;;;;;21.93;16.33;;;13.40;24.10;;;;;;4973765;28;20453;-76
2022/03/23 10:18:41;;;;;;;26.30;15.80;;;13.80;22.80;;;;;;4989930;28;20453;-75
2022/03/23 10:21:08;;;;;;;24.10;16.70;;;13.90;22.80;;;;;;5017346;28;21007;-77
2022/03/23 10:23:35;;;;;;;23.53;17.50;;;14.20;22.70;;;;;;5017950;28;20521;-76
2022/03/23 10:26:12;;;;;;;22.40;16.50;;;14.20;21.80;;;;;;5019596;28;20486;-76
2022/03/23 10:28:39;;;;;;;24.83;16.10;;;14.20;21.60;;;;;;5019093;28;20492;-76
2022/03/23 10:31:15;;;;;;;21.50;15.77;;;14.40;21.50;;;;;;5019285;28;20448;-76
2022/03/23 10:33:44;;;;;;;26.37;16.90;;;14.30;21.70;;;;;;5018200;28;20527;-75
2022/03/23 10:36:12;;;;;;;22.63;17.13;;;14.40;21.90;;;;;;5017079;28;20437;-77
2022/03/23 10:38:40;;;;;;;25.07;16.57;;;14.50;21.60;;;;;;5016715;28;20449;-76
2022/03/23 10:41:11;;;;;;;19.90;15.70;;;14.70;21.60;;;;;;5017727;28;20526;-77
2022/03/23 10:43:39;;;;;;;19.57;16.00;;;15.00;21.00;;;;;;5023771;28;20706;-76
2022/03/23 10:46:09;;;;;;;23.00;16.67;;;15.20;20.40;;;;;;5021038;28;20455;-76
2022/03/23 10:48:36;;;;;;;22.73;17.27;;;15.20;20.00;;;;;;5018184;28;20484;-75
2022/03/23 10:51:06;;;;;;;21.90;15.50;;;15.30;19.90;;;;;;5016242;28;20434;-74
2022/03/23 10:53:37;;;;;;;27.80;15.90;;;15.30;19.50;;;;;;5017282;28;20947;-74
2022/03/23 10:56:05;;;;;;;24.33;17.17;;;15.40;19.60;;;;;;5017057;28;20565;-74
2022/03/23 10:58:34;;;;;;;20.47;15.63;;;15.30;19.20;;;;;;5014088;28;20984;-77
2022/03/23 11:01:04;;;;;;;19.30;15.57;;;15.50;19.40;;;;;;5018326;28;20446;-76
2022/03/23 11:03:37;;;;;;;23.10;16.10;;;15.70;17.50;;;;;;5018285;28;20437;-76
2022/03/23 11:06:07;;;;;;;22.57;15.17;;;15.80;17.70;;;;;;5019069;28;20954;-75
2022/03/23 11:08:34;;;;;;;21.83;15.67;;;15.80;17.70;;;;;;5019728;28;20525;-76
2022/03/23 11:16:38;;;;;;;25.63;19.60;;;15.90;16.40;;;;;;5007430;28;20435;-76
2022/03/23 11:19:14;;;;;;;24.63;17.70;;;16.10;17.80;;;;;;4999249;28;20602;-77
2022/03/23 11:24:47;;;;;;;23.63;15.03;;;16.20;16.60;;;;;;5097530;28;20607;-77
2022/03/23 11:27:17;;;;;;;16.53;13.63;;;16.30;15.10;;;;;;5097414;28;20455;-77
2022/03/23 11:29:46;;;;;;;17.10;13.77;;;16.50;14.50;;;;;;5096804;28;20480;-77
2022/03/23 11:32:15;;;;;;;16.00;13.83;;;16.80;14.10;;;;;;5085694;28;20832;-77
2022/03/23 11:34:48;;;;;;;19.03;13.50;;;16.70;14.00;;;;;;5075348;28;20422;-77
2022/03/23 11:37:18;;;;;;;16.37;13.93;;;16.60;14.40;;;;;;5077570;28;20445;-79
2022/03/23 11:39:47;;;;;;;17.53;14.77;;;16.80;14.30;;;;;;5086178;28;20472;-77
2022/03/23 11:42:15;;;;;;;21.10;14.30;;;17.00;13.90;;;;;;5082265;28;20423;-77
2022/03/23 11:44:46;;;;;;;16.20;13.70;;;16.80;13.60;;;;;;5077817;28;20452;-77
2022/03/23 11:47:25;;;;;;;15.17;13.60;;;17.00;13.30;;;;;;5077213;28;20448;-78
2022/03/23 11:50:00;;;;;;;15.00;13.50;;;17.00;13.80;;;;;;5095035;28;20466;-79
2022/03/23 11:52:35;;;;;;;16.20;12.83;;;17.20;13.00;;;;;;5097248;28;20497;-77
2022/03/23 11:58:16;;;;;;;16.13;13.17;;;17.30;11.60;;;;;;5092595;28;20425;-78
2022/03/23 12:00:46;;;;;;;15.07;13.47;;;17.20;10.20;;;;;;5096984;28;20472;-77
2022/03/23 12:03:14;;;;;;;14.63;13.10;;;17.20;11.00;;;;;;5096025;28;20535;-77
2022/03/23 12:05:52;;;;;;;14.83;13.03;;;17.30;10.20;;;;;;5096720;28;20800;-78
2022/03/23 12:08:46;;;;;;;16.40;13.93;;;17.30;10.30;;;;;;5078616;28;20438;-76
2022/03/23 12:11:51;;;;;;;14.57;12.13;;;17.20;10.20;;;;;;5080538;28;20440;-77
2022/03/23 12:14:27;;;;;;;15.60;11.70;;;17.50;10.00;;;;;;5039546;28;20424;-75
2022/03/23 12:17:08;;;;;;;12.10;10.90;;;17.70;8.40;;;;;;5042155;28;20580;-77
2022/03/23 12:20:05;;;;;;;11.70;10.50;;;17.80;7.40;;;;;;5047250;28;20466;-75
2022/03/23 12:22:55;;;;;;;10.50;9.20;;;17.50;7.70;;;;;;5047715;28;20423;-78
2022/03/23 12:25:34;;;;;;;11.47;10.30;;;17.70;6.50;;;;;;5050667;28;20454;-78
2022/03/23 12:28:20;;;;;;;12.13;10.83;;;17.60;7.30;;;;;;5049688;28;20581;-78
2022/03/23 12:31:05;;;;;;;12.60;10.97;;;17.80;6.70;;;;;;5043868;28;20421;-81
2022/03/23 12:33:33;;;;;;;13.20;11.33;;;17.90;6.30;;;;;;5025292;28;20467;-77
2022/03/23 12:36:01;;;;;;;12.10;11.00;;;18.20;6.90;;;;;;5006392;28;20454;-78
2022/03/23 12:38:29;;;;;;;11.27;10.17;;;18.20;6.00;;;;;;5006448;28;20460;-76
2022/03/23 12:40:58;;;;;;;11.63;10.43;;;17.90;5.40;;;;;;5003785;28;20619;-77
2022/03/23 12:43:37;;;;;;;12.73;10.77;;;17.80;6.70;;;;;;5008815;28;20456;-77
2022/03/23 12:46:07;;;;;;;14.87;10.77;;;17.90;7.00;;;;;;5075870;28;20438;-76
2022/03/23 12:59:39;;;;;;;13.67;11.90;;;18.30;8.50;;;;;;5075875;28;20510;-77
2022/03/23 13:02:29;;;;;;;14.33;11.77;;;18.20;9.10;;;;;;5070947;28;20895;-76
2022/03/23 13:04:57;;;;;;;15.83;12.27;;;18.30;9.70;;;;;;5061608;28;20452;-76
2022/03/23 13:07:41;;;;;;;15.70;11.40;;;18.10;9.30;;;;;;5062073;28;20465;-77
2022/03/23 13:10:11;;;;;;;15.23;11.80;;;18.30;8.50;;;;;;5061323;28;20497;-75
2022/03/23 13:12:39;;;;;;;17.50;12.10;;;18.30;7.60;;;;;;5072697;28;20431;-76
2022/03/23 13:15:16;;;;;;;17.63;13.00;;;18.20;7.50;;;;;;5075104;28;20449;-77
2022/03/23 13:17:44;;;;;;;14.23;11.43;;;18.40;8.20;;;;;;5062207;28;20463;-77
2022/03/23 13:20:15;;;;;;;19.63;11.90;;;18.50;8.70;;;;;;5061451;28;20543;-77
2022/03/23 13:22:42;;;;;;;14.03;12.60;;;18.70;8.60;;;;;;5061080;28;20572;-78